LFBA 221600Z AUTO 32004KT 290V360 CAVOK 16/08 Q1033 NOSIG

ElémentsDécodage
LFBA Station météo située sur l'aérodrome de AGEN La Garenne
221600Z émis le 22 du mois à 16h00 UTC
AUTO Bulletin édité par un automate
32004KT vent du 320°, 04 noeuds
290V360 vent de direction variable entre 290° et 360°
CAVOK Ceiling And Visibility OK
- Visibilité de 10 Km ou plus
- Pas de nuage au-dessous de 1500m ou au-dessous de l'altitude minimale du secteur la plus élevée (si>1500m) et absence de CB
- pas de temps présent significatif
16/08 température 16°C, point de rosée 08°C
 soit une humidité relative de 59%
Q1033 la pression au niveau de la mer (QNH) est de 1033 hPa
NOSIG Pas de changement significatif prévu au cours des deux heures suivant l'heure de l'observation